M I D A S
Marine Information and Data Acquisition System
Tripno 464 of the Zeeleeuw from 2003-04-17 06:31:34 to 2003-04-17 14:26:05
Back to CruiseResearch ActivitiesStationsMapUnderway DataData graphs

EquipmentUnitsComment
TimeDGPSUTC
LatitudeDGPSDM.mWGS84
LongitudeDGPSDM.mWGS84
HeadingGyrodeg 
SOGDGPSknotsSpeed over ground
COGDGPSdegCourse over ground
DepthEcho soundermeters200 kHz
Missing or incorrect values are displayed as -999
Navigation data collected by the RV Zeeleeuw from 2003-04-17 06:31:34 to 2003-04-17 14:26:05
Time Latitude Longitude Heading SOG COG Depth
2003-04-17 06:32:38 51°13.76 2°55.71 327 5.7 322 7.7
2003-04-17 06:33:38 51°13.85 2°55.61 336.6 7.2 333 8.2
2003-04-17 06:34:38 51°13.97 2°55.53 340.9 7.6 336 8.3
2003-04-17 06:35:38 51°14.08 2°55.44 339.1 7.6 334 8
2003-04-17 06:36:38 51°14.2 2°55.35 332.9 8.4 328 -999
2003-04-17 06:37:38 51°14.31 2°55.17 314.1 10.1 309 8.4
2003-04-17 06:38:38 51°14.45 2°54.93 322.9 13.3 316 8.3
2003-04-17 06:39:38 51°14.61 2°54.69 333.5 13.1 324 7.4
2003-04-17 06:40:38 51°14.79 2°54.51 337 12.8 326 7.3
2003-04-17 06:41:38 51°14.97 2°54.34 338 12.3 328 6.7
2003-04-17 06:42:38 51°15.14 2°54.16 337.9 12.3 327 6.8
2003-04-17 06:43:38 51°15.31 2°53.96 336.1 12.9 325 7.5
2003-04-17 06:44:38 51°15.49 2°53.76 336.6 13.5 325 8.3
2003-04-17 06:45:38 51°15.69 2°53.57 341.9 13.7 330 9.3
2003-04-17 06:46:38 51°15.88 2°53.39 343.8 13.7 332 9.8
2003-04-17 06:47:38 51°16.09 2°53.22 343.5 13.6 332 10.1
2003-04-17 06:48:38 51°16.29 2°53.05 343 13.5 332 10.2
2003-04-17 06:49:38 51°16.48 2°52.88 343.6 13.5 332 10.1
2003-04-17 06:50:38 51°16.68 2°52.73 345.4 13.2 337 9.2
2003-04-17 06:51:38 51°16.88 2°52.62 354.3 12.5 346 7.9
2003-04-17 06:52:38 51°17.09 2°52.53 352.3 12.4 343 7.6
2003-04-17 06:53:38 51°17.29 2°52.44 354.1 12.7 346 8.3
2003-04-17 06:54:38 51°17.5 2°52.36 357.5 12.8 349 8.6
2003-04-17 06:55:38 51°17.71 2°52.33 6.5 12.6 357 8.6
2003-04-17 06:56:38 51°17.91 2°52.33 16.1 12.4 8 8.7
2003-04-17 06:57:38 51°18.11 2°52.42 25.3 12.3 18 8.9
2003-04-17 06:58:38 51°18.3 2°52.56 34.1 12.3 27 9.2
2003-04-17 06:59:38 51°18.48 2°52.71 33.9 12.3 26 9.5
2003-04-17 07:00:38 51°18.67 2°52.85 32.8 12.4 25 9.7
2003-04-17 07:01:38 51°18.85 2°53.01 41.5 12.2 35 10.1
2003-04-17 07:02:38 51°19.01 2°53.19 42.2 12.3 35 10.3
2003-04-17 07:03:38 51°19.18 2°53.38 41.9 12.3 34 10.6
2003-04-17 07:04:38 51°19.35 2°53.56 41.5 12.2 34 10.8
2003-04-17 07:05:38 51°19.52 2°53.74 41.7 12.2 34 11.2
2003-04-17 07:06:38 51°19.68 2°53.92 41.8 12.1 34 11.5
2003-04-17 07:07:38 51°19.85 2°54.1 41.6 12.1 33 11.8
2003-04-17 07:08:38 51°20.02 2°54.27 41.3 12 33 11.4
2003-04-17 07:09:38 51°20.19 2°54.45 41.5 12.1 33 12.7
2003-04-17 07:10:38 51°20.36 2°54.63 41.7 12.1 33 13.1
2003-04-17 07:11:38 51°20.52 2°54.8 41.3 12.1 33 13.6
2003-04-17 07:12:38 51°20.69 2°54.99 45.6 12 38 13.9
2003-04-17 07:13:38 51°20.83 2°55.2 52 11.9 45 14.1
2003-04-17 07:14:38 51°20.97 2°55.43 51.5 11.9 45 14.3
2003-04-17 07:15:38 51°21.11 2°55.65 51.2 11.9 45 14.5
2003-04-17 07:16:38 51°21.25 2°55.87 51.4 11.9 45 14.6
2003-04-17 07:17:38 51°21.39 2°56.09 51.3 11.8 44 14.9
2003-04-17 07:18:38 51°21.53 2°56.31 51.3 11.7 45 15.1
2003-04-17 07:19:38 51°21.67 2°56.53 51.6 11.7 44 15.4
2003-04-17 07:20:38 51°21.81 2°56.75 51.6 11.7 45 15.6
2003-04-17 07:21:38 51°21.95 2°56.97 51.5 11.7 45 15.8
2003-04-17 07:22:38 51°22.08 2°57.2 54.4 11.7 49 15.8
2003-04-17 07:23:38 51°22.21 2°57.43 56.4 11.6 52 16
2003-04-17 07:24:38 51°22.32 2°57.69 58.8 11.7 55 16.1
2003-04-17 07:25:38 51°22.43 2°57.94 58.3 11.7 54 16.2
2003-04-17 07:26:38 51°22.54 2°58.2 60.6 11.7 57 16.1
2003-04-17 07:27:38 51°22.65 2°58.46 60.5 11.7 57 16
2003-04-17 07:28:38 51°22.76 2°58.72 60.6 11.8 57 16
2003-04-17 07:29:38 51°22.86 2°58.98 60.2 11.8 57 16
2003-04-17 07:30:38 51°22.97 2°59.24 62 11.7 58 15.9
2003-04-17 07:31:38 51°23.07 2°59.5 62.7 11 59 15.6
2003-04-17 07:32:38 51°23.13 2°59.71 69.9 6.6 69 15.8
2003-04-17 07:33:38 51°23.18 2°59.81 60.8 4 57 16
2003-04-17 07:34:38 51°23.21 2°59.89 59.2 3.3 53 16.1
2003-04-17 07:35:38 51°23.24 2°59.94 62.5 2 58 16.2
2003-04-17 07:36:38 51°23.24 2°59.99 79.8 1.6 99 16.1
2003-04-17 07:37:38 51°23.23 3°0.02 79.4 1.1 115 16
2003-04-17 07:38:38 51°23.22 3°0.04 80.7 0.7 156 15.9
2003-04-17 07:39:38 51°23.21 3°0.03 80 0.8 196 15.9
2003-04-17 07:40:38 51°23.2 3°0.02 76 1 217 15.8
2003-04-17 07:41:38 51°23.18 3°0 78.3 1.2 219 15.8
2003-04-17 07:42:38 51°23.17 2°59.98 75.6 1.1 216 15.7
2003-04-17 07:43:38 51°23.15 2°59.97 74 0.7 198 15.6
2003-04-17 07:44:38 51°23.14 2°59.98 76.8 0.7 142 15.5
2003-04-17 07:45:38 51°23.14 2°59.99 70.1 0.8 103 15.5
2003-04-17 07:46:38 51°23.14 3°0.02 65.1 1.1 74 15.4
2003-04-17 07:47:38 51°23.15 3°0.05 62.4 1.3 64 15.5
2003-04-17 07:48:38 51°23.16 3°0.08 58.9 1 59 15.5
2003-04-17 07:49:38 51°23.17 3°0.1 54.6 0.9 41 15.4
2003-04-17 07:50:38 51°23.18 3°0.1 43.7 1 355 15.5
2003-04-17 07:51:38 51°23.2 3°0.09 44.2 0.9 339 15.7
2003-04-17 07:52:38 51°23.2 3°0.09 57.3 0.2 303 15.8
2003-04-17 07:53:38 51°23.2 3°0.08 64.8 0.4 202 15.7
2003-04-17 07:54:38 51°23.2 3°0.08 65 0.4 204 15.7
2003-04-17 07:55:38 51°23.19 3°0.07 61.8 0.5 212 15.7
2003-04-17 07:56:38 51°23.18 3°0.06 56.5 0.5 236 15.7
2003-04-17 07:57:38 51°23.18 3°0.05 57.7 0.5 241 15.7
2003-04-17 07:58:38 51°23.18 3°0.04 56.6 0.2 281 15.7
2003-04-17 07:59:38 51°23.18 3°0.04 50.2 0.6 7 15.8
2003-04-17 08:00:38 51°23.2 3°0.05 44.3 1 5 15.9
2003-04-17 08:01:38 51°23.21 3°0.05 51.2 0.8 24 16.1
2003-04-17 08:02:38 51°23.22 3°0.06 54 0.7 33 16.1
2003-04-17 08:03:38 51°23.23 3°0.07 54.5 0.4 25 16.2
2003-04-17 08:04:38 51°23.23 3°0.07 59.8 0.1 182 16.2
2003-04-17 08:05:38 51°23.23 3°0.07 63.7 0.3 201 16.3
2003-04-17 08:06:38 51°23.22 3°0.07 66.5 0.5 197 16.1
2003-04-17 08:07:38 51°23.21 3°0.06 63.1 0.5 209 16.1
2003-04-17 08:08:38 51°23.21 3°0.05 58.1 0.5 233 16.1
2003-04-17 08:09:38 51°23.2 3°0.04 55.8 0.6 241 16
2003-04-17 08:10:38 51°23.2 3°0.03 57.8 0.6 236 16.2
2003-04-17 08:11:38 51°23.19 3°0.01 59.4 0.7 232 16.1
2003-04-17 08:12:38 51°23.18 3°0 60.9 0.6 226 16.1
2003-04-17 08:13:38 51°23.2 3°0.05 60.9 6.9 59 16
2003-04-17 08:14:38 51°23.23 3°0.32 91 11.7 95 15.8
2003-04-17 08:15:38 51°23.16 3°0.62 104.6 12 109 14.4
2003-04-17 08:16:38 51°23.1 3°0.93 104 12 108 13.1
2003-04-17 08:17:38 51°23.04 3°1.23 103 12.1 105 12
2003-04-17 08:18:38 51°23 3°1.55 99.5 12.1 101 11.4
2003-04-17 08:19:38 51°22.95 3°1.86 104.1 12.4 107 11.5
2003-04-17 08:20:38 51°22.89 3°2.17 103.7 11.2 107 10
2003-04-17 08:21:38 51°22.83 3°2.48 103.2 12.4 106 11
2003-04-17 08:22:38 51°22.77 3°2.8 102.9 12.5 106 11
2003-04-17 08:23:38 51°22.72 3°3.11 102.9 12.1 106 9.3
2003-04-17 08:24:38 51°22.66 3°3.43 104.1 12.4 107 10.9
2003-04-17 08:25:38 51°22.6 3°3.74 102.5 12.1 105 11.1
2003-04-17 08:26:38 51°22.55 3°4.05 97.6 12.2 99 10.7
2003-04-17 08:27:38 51°22.53 3°4.37 95.9 12.3 97 11.4
2003-04-17 08:28:38 51°22.51 3°4.7 92.7 12.2 93 11
2003-04-17 08:29:38 51°22.5 3°5.02 90.1 12.3 90 11.3
2003-04-17 08:30:38 51°22.51 3°5.35 87.7 12.4 88 11.3
2003-04-17 08:31:38 51°22.52 3°5.68 87 12.4 87 11.3
2003-04-17 08:32:38 51°22.53 3°6.01 86.6 12.4 86 11.4
2003-04-17 08:33:38 51°22.54 3°6.34 86.8 12.4 87 11.4
2003-04-17 08:34:38 51°22.55 3°6.67 90.3 12.5 90 11.6
2003-04-17 08:35:38 51°22.55 3°7.01 90.7 12.5 91 11.7
2003-04-17 08:36:38 51°22.54 3°7.34 90.7 12.6 91 11.8
2003-04-17 08:37:38 51°22.54 3°7.67 87.7 12.6 87 11.9
2003-04-17 08:38:38 51°22.56 3°8.01 85.8 12.6 85 11.9
2003-04-17 08:39:38 51°22.57 3°8.33 86.5 11.8 86 12
2003-04-17 08:40:38 51°22.59 3°8.62 84 9.6 83 12
2003-04-17 08:41:38 51°22.6 3°8.8 86.5 5.4 89 12.3
2003-04-17 08:42:38 51°22.61 3°8.91 77.5 3.4 81 12.5
2003-04-17 08:43:38 51°22.62 3°8.98 77.6 2.7 81 12.3
2003-04-17 08:44:38 51°22.62 3°9.05 76.5 2.3 81 12.5
2003-04-17 08:45:38 51°22.63 3°9.11 77 2.3 81 12.5
2003-04-17 08:46:38 51°22.63 3°9.17 82.1 2.7 86 12.5
2003-04-17 08:47:38 51°22.64 3°9.26 77.6 3.6 79 12.6
2003-04-17 08:48:38 51°22.66 3°9.35 66.9 3.6 64 12.6
2003-04-17 08:49:38 51°22.68 3°9.42 60.5 2.4 54 12.8
2003-04-17 08:50:38 51°22.7 3°9.44 59.3 0.7 36 12.9
2003-04-17 08:51:38 51°22.71 3°9.45 60.6 0.5 35 12.8
2003-04-17 08:52:38 51°22.71 3°9.46 61.8 0.4 40 12.8
2003-04-17 08:53:38 51°22.71 3°9.46 68.3 0.3 66 12.7
2003-04-17 08:54:38 51°22.72 3°9.47 74.5 0.3 93 12.7
2003-04-17 08:55:38 51°22.72 3°9.48 73.7 0.4 101 12.7
2003-04-17 08:56:38 51°22.71 3°9.49 70.5 0.2 103 12.7
2003-04-17 08:57:38 51°22.71 3°9.49 68.1 0.2 87 12.8
2003-04-17 08:58:38 51°22.71 3°9.49 71.1 0.1 130 12.8
2003-04-17 08:59:38 51°22.71 3°9.5 71.8 0.2 204 12.7
2003-04-17 09:00:38 51°22.71 3°9.49 78.3 0.4 216 12.7
2003-04-17 09:01:38 51°22.7 3°9.49 85 0.7 178 12.6
2003-04-17 09:02:38 51°22.69 3°9.48 80.9 0.5 214 12.8
2003-04-17 09:03:38 51°22.68 3°9.47 70 0.6 213 12.8
2003-04-17 09:04:38 51°22.68 3°9.46 51.9 0.8 256 12.6
2003-04-17 09:05:38 51°22.68 3°9.44 30.8 0.9 272 13
2003-04-17 09:06:38 51°22.68 3°9.42 25 0.9 270 12.8
2003-04-17 09:07:38 51°22.68 3°9.39 21.6 1 279 13
2003-04-17 09:08:38 51°22.68 3°9.37 31.6 0.8 301 12.9
2003-04-17 09:09:38 51°22.69 3°9.35 43.9 0.6 316 12.9
2003-04-17 09:10:38 51°22.7 3°9.35 52.7 0.4 329 12.9
2003-04-17 09:11:38 51°22.7 3°9.34 64.5 0.1 337 12.9
2003-04-17 09:12:38 51°22.7 3°9.35 82.1 0.4 154 12.8
2003-04-17 09:13:38 51°22.69 3°9.35 107.8 0.9 170 12.9
2003-04-17 09:14:38 51°22.66 3°9.35 141.1 1.6 185 12.8
2003-04-17 09:15:38 51°22.63 3°9.34 158.1 2 193 12.9
2003-04-17 09:16:38 51°22.6 3°9.33 160.2 2 196 12.8
2003-04-17 09:17:38 51°22.57 3°9.31 160.8 2 196 13
2003-04-17 09:18:38 51°22.52 3°9.29 187.2 3.6 199 12.9
2003-04-17 09:19:38 51°22.47 3°9.2 249.6 5.8 245 12.7
2003-04-17 09:20:38 51°22.48 3°9.03 307.6 7.1 296 12.8
2003-04-17 09:21:38 51°22.56 3°8.85 317.5 8.9 306 12.6
2003-04-17 09:22:38 51°22.64 3°8.64 306.9 9.6 297 12.6
2003-04-17 09:23:38 51°22.72 3°8.42 310 9.7 300 12.8
2003-04-17 09:24:38 51°22.8 3°8.19 308.4 9.9 297 12.7
2003-04-17 09:25:38 51°22.88 3°7.96 310.6 9.6 300 12.4
2003-04-17 09:26:38 51°22.96 3°7.75 323.7 9.3 313 12.1
2003-04-17 09:27:38 51°23.08 3°7.59 327.5 9.2 317 11.6
2003-04-17 09:28:38 51°23.2 3°7.4 326 11.5 317 11.7
2003-04-17 09:29:38 51°23.36 3°7.19 330.2 12.6 322 12.1
2003-04-17 09:30:38 51°23.52 3°6.98 330.4 12.6 323 12.9
2003-04-17 09:31:38 51°23.7 3°6.79 335 12.8 328 15
2003-04-17 09:32:38 51°23.89 3°6.65 352.5 12.6 346 18.5
2003-04-17 09:33:38 51°24.08 3°6.71 33.1 12.2 30 18.7
2003-04-17 09:34:38 51°24.21 3°6.9 57.7 8.8 56 15.4
2003-04-17 09:35:38 51°24.27 3°7.02 53.5 3 58 14.1
2003-04-17 09:36:38 51°24.27 3°7.05 83 0.7 144 14.1
2003-04-17 09:37:38 51°24.26 3°7.07 93.2 1.5 126 14.3
2003-04-17 09:38:38 51°24.24 3°7.11 88 1.7 115 14.6
2003-04-17 09:39:38 51°24.24 3°7.15 58.6 1.3 82 14.7
2003-04-17 09:40:38 51°24.25 3°7.17 40.3 0.5 70 14.6
2003-04-17 09:41:38 51°24.25 3°7.17 40 0.2 77 14.6
2003-04-17 09:42:38 51°24.25 3°7.18 46.7 0.3 97 14.6
2003-04-17 09:43:38 51°24.24 3°7.19 54.7 0.4 126 14.7
2003-04-17 09:44:38 51°24.24 3°7.19 56.9 0.5 157 14.8
2003-04-17 09:45:38 51°24.23 3°7.2 56.8 0.5 170 15
2003-04-17 09:46:38 51°24.22 3°7.2 54.8 0.6 183 15.3
2003-04-17 09:47:38 51°24.21 3°7.2 47.9 0.5 189 15.7
2003-04-17 09:48:38 51°24.21 3°7.19 29.6 0.1 178 15.8
2003-04-17 09:49:38 51°24.22 3°7.2 21.7 1.7 17 15.3
2003-04-17 09:50:38 51°24.25 3°7.22 24.3 1.4 20 14.6
2003-04-17 09:51:38 51°24.27 3°7.23 28.2 1.1 24 14.2
2003-04-17 09:52:38 51°24.28 3°7.24 29.3 0.8 28 13.9
2003-04-17 09:53:38 51°24.29 3°7.25 29.5 0.6 37 13.8
2003-04-17 09:54:38 51°24.29 3°7.26 31.6 0.3 63 13.7
2003-04-17 09:55:38 51°24.3 3°7.27 32.9 0.2 116 13.6
2003-04-17 09:56:38 51°24.29 3°7.27 33 0.2 155 13.7
2003-04-17 09:57:38 51°24.29 3°7.27 33.9 0.3 176 13.8
2003-04-17 09:58:38 51°24.28 3°7.27 32.2 0.4 184 14
2003-04-17 09:59:38 51°24.27 3°7.27 30.4 0.5 190 14.2
2003-04-17 10:00:38 51°24.27 3°7.27 33.6 0.2 130 14.2
2003-04-17 10:01:38 51°24.27 3°7.28 36.1 0.6 62 14.3
2003-04-17 10:02:38 51°24.28 3°7.3 38.3 0.9 57 14.1
2003-04-17 10:03:38 51°24.29 3°7.32 39.9 1 59 14
2003-04-17 10:04:38 51°24.29 3°7.34 42.8 0.9 68 13.8
2003-04-17 10:05:38 51°24.3 3°7.37 43.5 0.9 68 13.7
2003-04-17 10:06:38 51°24.3 3°7.38 43.2 0.7 75 13.7
2003-04-17 10:07:38 51°24.31 3°7.4 19.4 0.7 23 13.5
2003-04-17 10:08:38 51°24.34 3°7.38 351.3 3.8 342 12.9
2003-04-17 10:09:38 51°24.45 3°7.39 13.6 7.6 9 12.1
2003-04-17 10:10:38 51°24.59 3°7.42 13.1 8.2 9 11.4
2003-04-17 10:11:38 51°24.72 3°7.45 11.8 8.2 7 11
2003-04-17 10:12:38 51°24.86 3°7.48 12 8.1 8 10.4
2003-04-17 10:13:38 51°24.99 3°7.51 11.3 8 7 9.7
2003-04-17 10:14:38 51°25.12 3°7.53 11.2 7.9 6 8.9
2003-04-17 10:15:38 51°25.25 3°7.56 10.2 7.8 5 9
2003-04-17 10:16:38 51°25.38 3°7.58 11 7.9 6 9.3
2003-04-17 10:17:38 51°25.51 3°7.62 15.1 7.8 11 9.5
2003-04-17 10:18:38 51°25.64 3°7.66 14.9 7.9 11 9.7
2003-04-17 10:19:38 51°25.76 3°7.71 19.9 7.9 17 9.9
2003-04-17 10:20:38 51°25.89 3°7.77 19.2 7.9 16 10
2003-04-17 10:21:38 51°26.01 3°7.83 20.7 7.8 18 9.9
2003-04-17 10:22:38 51°26.14 3°7.89 20.5 7.8 18 10.1
2003-04-17 10:23:38 51°26.26 3°7.95 18.5 7.9 16 10.5
2003-04-17 10:24:38 51°26.39 3°8.01 18.8 7.9 16 10.7
2003-04-17 10:25:38 51°26.51 3°8.07 19.1 7.9 17 10.6
2003-04-17 10:26:38 51°26.64 3°8.13 19.5 7.9 17 11.3
2003-04-17 10:27:38 51°26.77 3°8.19 19.6 7.9 17 12.3
2003-04-17 10:28:38 51°26.89 3°8.25 19.6 8 18 12.5
2003-04-17 10:29:38 51°27.02 3°8.31 19.7 8 18 12.3
2003-04-17 10:30:38 51°27.15 3°8.38 19.4 8 17 12.7
2003-04-17 10:31:38 51°27.27 3°8.44 19.1 8 17 12.8
2003-04-17 10:32:38 51°27.39 3°8.5 19.2 7 17 12.9
2003-04-17 10:33:38 51°27.47 3°8.54 20.3 3.9 20 13.6
2003-04-17 10:34:38 51°27.52 3°8.57 24.7 2.7 28 13.8
2003-04-17 10:35:38 51°27.55 3°8.62 37.3 2.3 50 13.9
2003-04-17 10:36:38 51°27.57 3°8.67 40.5 2.2 58 13.8
2003-04-17 10:37:38 51°27.59 3°8.71 38.7 2.1 56 13.8
2003-04-17 10:38:38 51°27.61 3°8.76 36.8 2 54 13.8
2003-04-17 10:39:38 51°27.63 3°8.81 37.2 2.6 50 13.8
2003-04-17 10:40:38 51°27.67 3°8.87 37 3.4 45 13.9
2003-04-17 10:41:38 51°27.71 3°8.93 36.8 3.7 45 14
2003-04-17 10:42:38 51°27.75 3°9 36 3.8 43 13.9
2003-04-17 10:43:38 51°27.8 3°9.06 27.9 3.7 32 13.9
2003-04-17 10:44:38 51°27.86 3°9.11 23 3.7 25 14
2003-04-17 10:45:38 51°27.91 3°9.15 21.3 3.7 22 14.1
2003-04-17 10:46:38 51°27.97 3°9.18 16.1 3.6 15 14.3
2003-04-17 10:47:38 51°28.03 3°9.19 9.8 3.3 6 14.4
2003-04-17 10:48:38 51°28.07 3°9.17 342.4 2.2 322 14.5
2003-04-17 10:49:38 51°28.09 3°9.14 343.5 1.6 316 14.7
2003-04-17 10:50:38 51°28.11 3°9.11 346.8 1.2 313 14.7
2003-04-17 10:51:38 51°28.12 3°9.09 348.6 1 309 14.7
2003-04-17 10:52:38 51°28.13 3°9.07 354.4 0.8 313 14.7
2003-04-17 10:53:38 51°28.14 3°9.06 359.4 0.6 324 14.9
2003-04-17 10:54:38 51°28.14 3°9.06 4.8 0.5 333 14.8
2003-04-17 10:55:38 51°28.15 3°9.06 9.3 0.3 356 14.9
2003-04-17 10:56:38 51°28.15 3°9.05 8.2 0.2 347 14.9
2003-04-17 10:57:38 51°28.15 3°9.05 5.5 0.3 334 15
2003-04-17 10:58:38 51°28.16 3°9.05 2.9 0.3 333 14.9
2003-04-17 10:59:38 51°28.16 3°9.04 1.9 0.3 330 15
2003-04-17 11:00:38 51°28.17 3°9.04 0.5 0.3 331 15.1
2003-04-17 11:01:38 51°28.17 3°9.04 359.2 0.4 334 15.1
2003-04-17 11:02:38 51°28.18 3°9.03 357.5 0.4 330 15.1
2003-04-17 11:03:38 51°28.19 3°9.03 356.2 0.4 336 15.3
2003-04-17 11:04:38 51°28.19 3°9.02 355.6 0.4 336 15.2
2003-04-17 11:05:38 51°28.2 3°9.02 354.1 0.5 333 15.3
2003-04-17 11:06:38 51°28.21 3°9.01 354.5 0.5 342 15.2
2003-04-17 11:07:38 51°28.22 3°9.01 354.8 0.5 347 15.3
2003-04-17 11:08:38 51°28.22 3°9.01 2.8 0.4 17 15.4
2003-04-17 11:09:38 51°28.23 3°9.02 15.1 0.4 80 15.6
2003-04-17 11:10:38 51°28.22 3°9.03 23.3 0.6 114 15.5
2003-04-17 11:11:38 51°28.22 3°9.05 29 0.7 124 15.4
2003-04-17 11:12:38 51°28.21 3°9.06 29.7 0.8 134 15.6
2003-04-17 11:13:38 51°28.2 3°9.07 14.5 0.7 143 15.3
2003-04-17 11:14:38 51°28.19 3°9.08 8.2 0.6 146 15.4
2003-04-17 11:15:38 51°28.18 3°9.09 8.5 0.6 141 15.5
2003-04-17 11:16:38 51°28.18 3°9.11 14.2 0.6 115 15.5
2003-04-17 11:17:38 51°28.18 3°9.12 26.4 0.8 93 15.6
2003-04-17 11:18:38 51°28.17 3°9.15 43.1 1.3 98 15.4
2003-04-17 11:19:38 51°28.17 3°9.19 68.1 1.8 107 15.3
2003-04-17 11:20:38 51°28.15 3°9.24 100.6 2.3 123 15.2
2003-04-17 11:21:38 51°28.12 3°9.29 135.9 2.7 139 15.2
2003-04-17 11:22:38 51°28.08 3°9.36 135.1 5.3 133 15
2003-04-17 11:23:38 51°28.09 3°9.55 51.1 9.7 54 14.9
2003-04-17 11:24:38 51°28.25 3°9.55 330.6 10.3 325 15
2003-04-17 11:25:38 51°28.3 3°9.27 284.3 12.1 277 15.7
2003-04-17 11:26:38 51°28.32 3°8.93 284.6 12.9 277 16.2
2003-04-17 11:27:38 51°28.35 3°8.59 285.2 12.9 278 16.3
2003-04-17 11:28:38 51°28.38 3°8.26 284.3 12.8 277 15
2003-04-17 11:29:38 51°28.41 3°7.92 284.8 12.8 278 16.4
2003-04-17 11:30:38 51°28.44 3°7.58 285 12.9 279 17.2
2003-04-17 11:31:38 51°28.47 3°7.24 285 12.9 278 17.6
2003-04-17 11:32:38 51°28.5 3°6.9 285.3 12.9 279 17.9
2003-04-17 11:33:38 51°28.54 3°6.56 284.5 12.8 279 18.1
2003-04-17 11:34:38 51°28.57 3°6.23 285.2 12.9 280 18.7
2003-04-17 11:35:38 51°28.61 3°5.89 285.3 12.8 280 18.5
2003-04-17 11:36:38 51°28.64 3°5.55 279.7 12.8 274 19.4
2003-04-17 11:37:38 51°28.64 3°5.21 275.4 12.8 271 21
2003-04-17 11:38:38 51°28.65 3°4.87 276 12.9 272 22.7
2003-04-17 11:39:38 51°28.65 3°4.53 275.4 12.8 271 24.1
2003-04-17 11:40:38 51°28.66 3°4.19 276.8 12.9 273 25.2
2003-04-17 11:41:38 51°28.66 3°3.88 276.9 9.2 273 25.9
2003-04-17 11:42:38 51°28.68 3°3.74 289 3.8 287 26.4
2003-04-17 11:43:38 51°28.69 3°3.71 309.1 0.6 340 26.4
2003-04-17 11:44:38 51°28.7 3°3.71 314.2 0.9 344 26.4
2003-04-17 11:45:38 51°28.71 3°3.71 320.7 0.6 30 26.5
2003-04-17 11:46:38 51°28.72 3°3.72 327.1 0.7 50 26.5
2003-04-17 11:47:38 51°28.73 3°3.74 328.3 0.8 61 26.6
2003-04-17 11:48:38 51°28.74 3°3.76 330.6 0.8 66 26.6
2003-04-17 11:49:38 51°28.74 3°3.78 332.2 0.9 70 26.6
2003-04-17 11:50:38 51°28.74 3°3.8 330.2 0.9 73 26.7
2003-04-17 11:51:38 51°28.75 3°3.82 327.2 0.9 77 26.7
2003-04-17 11:52:38 51°28.75 3°3.85 323.9 0.9 80 26.5
2003-04-17 11:53:38 51°28.75 3°3.87 324.2 1 82 26.6
2003-04-17 11:54:38 51°28.76 3°3.89 325.8 0.9 79 26.5
2003-04-17 11:55:38 51°28.76 3°3.92 325.3 0.9 80 26.5
2003-04-17 11:56:38 51°28.76 3°3.94 324.3 0.9 79 26.5
2003-04-17 11:57:38 51°28.76 3°3.97 323.7 0.9 79 26.7
2003-04-17 11:58:38 51°28.77 3°3.99 323.2 1 78 26.7
2003-04-17 11:59:38 51°28.77 3°4.02 323.7 0.9 77 26.6
2003-04-17 12:00:38 51°28.77 3°4.04 324.2 1 74 26.6
2003-04-17 12:01:38 51°28.78 3°4.07 325.8 1 73 26.5
2003-04-17 12:02:38 51°28.78 3°4.09 328.9 1.1 72 26.7
2003-04-17 12:03:38 51°28.79 3°4.12 330.3 1.1 72 26.5
2003-04-17 12:04:38 51°28.8 3°4.15 330.5 1.1 73 26.6
2003-04-17 12:05:38 51°28.8 3°4.18 330.4 1.1 69 26.5
2003-04-17 12:06:38 51°28.81 3°4.2 334.4 1.1 52 26.5
2003-04-17 12:07:38 51°28.83 3°4.23 344 1.4 42 26.5
2003-04-17 12:08:38 51°28.85 3°4.25 354.1 1.8 37 26.5
2003-04-17 12:09:38 51°28.87 3°4.28 2.1 1.9 39 26.6
2003-04-17 12:10:38 51°28.89 3°4.32 8.2 1.9 41 26.6
2003-04-17 12:11:38 51°28.92 3°4.35 15.3 2 43 26.6
2003-04-17 12:12:38 51°28.94 3°4.39 21.5 2.1 48 26.6
2003-04-17 12:13:38 51°28.96 3°4.43 25.9 2.1 49 26.6
2003-04-17 12:14:38 51°28.99 3°4.48 25.7 3.1 39 26.7
2003-04-17 12:15:38 51°29.11 3°4.44 320.8 10.7 322 26.9
2003-04-17 12:16:38 51°29.1 3°4.16 247.1 11.9 244 27.1
2003-04-17 12:17:38 51°29.01 3°3.86 251.9 12.5 249 27
2003-04-17 12:18:38 51°28.94 3°3.55 252 12.3 248 27
2003-04-17 12:19:38 51°28.86 3°3.25 251.8 12.2 249 26.9
2003-04-17 12:20:38 51°28.79 3°2.94 252.1 12.2 249 26.8
2003-04-17 12:21:38 51°28.72 3°2.63 252.6 12.2 249 26.7
2003-04-17 12:22:38 51°28.65 3°2.33 252.4 12.2 249 26.3
2003-04-17 12:23:38 51°28.59 3°2.02 254.7 12.1 252 26.1
2003-04-17 12:24:38 51°28.53 3°1.71 254.7 12.3 252 25.8
2003-04-17 12:25:38 51°28.47 3°1.4 254.3 12.1 252 25.2
2003-04-17 12:26:38 51°28.41 3°1.09 255.6 12.1 253 24.7
2003-04-17 12:27:38 51°28.35 3°0.78 255.6 12.2 253 24
2003-04-17 12:28:38 51°28.29 3°0.47 254.7 12.1 253 23.4
2003-04-17 12:29:38 51°28.23 3°0.16 255 12.2 253 22.4
2003-04-17 12:30:38 51°28.18 2°59.85 255.3 12.2 254 22.4
2003-04-17 12:31:38 51°28.12 2°59.54 255.1 12.2 253 23.2
2003-04-17 12:32:38 51°28.06 2°59.24 254.3 12.1 253 23.8
2003-04-17 12:33:38 51°28.01 2°58.92 255.9 12.1 255 24.2
2003-04-17 12:34:38 51°27.95 2°58.61 256.2 12.1 256 27.7
2003-04-17 12:35:38 51°27.9 2°58.3 254.8 12.3 254 28.6
2003-04-17 12:36:38 51°27.85 2°57.98 255.9 12.2 255 29.9
2003-04-17 12:37:38 51°27.79 2°57.67 254 12.3 254 30.6
2003-04-17 12:38:38 51°27.73 2°57.36 254.3 12.3 254 31.3
2003-04-17 12:39:38 51°27.68 2°57.05 254.7 12.3 254 30.9
2003-04-17 12:40:38 51°27.62 2°56.74 253.7 12 252 29
2003-04-17 12:41:38 51°27.56 2°56.43 255.4 11.8 255 30.6
2003-04-17 12:42:38 51°27.51 2°56.13 254 12 253 32.8
2003-04-17 12:43:38 51°27.45 2°55.82 254.5 12 253 31.8
2003-04-17 12:44:38 51°27.39 2°55.51 255.1 12.1 254 31.4
2003-04-17 12:45:38 51°27.33 2°55.2 254.6 12.2 253 32
2003-04-17 12:46:38 51°27.27 2°54.89 254.9 12.2 253 32.6
2003-04-17 12:47:38 51°27.21 2°54.59 252.5 12.1 251 31.9
2003-04-17 12:48:38 51°27.15 2°54.28 252.9 12 252 28.7
2003-04-17 12:49:38 51°27.08 2°53.98 252.5 11.9 252 27.2
2003-04-17 12:50:38 51°27.02 2°53.68 253.1 12.1 252 28.8
2003-04-17 12:51:38 51°26.95 2°53.37 252.2 12.2 250 31.7
2003-04-17 12:52:38 51°26.88 2°53.07 252.8 12.2 250 31.4
2003-04-17 12:53:38 51°26.81 2°52.76 252.2 12.2 250 31.1
2003-04-17 12:54:38 51°26.74 2°52.45 252.9 12.2 250 30.3
2003-04-17 12:55:38 51°26.67 2°52.15 252.3 12.1 250 31.1
2003-04-17 12:56:38 51°26.61 2°51.85 253.3 12 251 30.3
2003-04-17 12:57:38 51°26.54 2°51.55 253.2 12 251 28.7
2003-04-17 12:58:38 51°26.47 2°51.24 252 12 250 29.6
2003-04-17 12:59:38 51°26.41 2°50.94 251.9 12 250 26.9
2003-04-17 13:00:38 51°26.34 2°50.64 251.3 12.1 250 26.5
2003-04-17 13:01:38 51°26.27 2°50.34 253.5 11.9 252 26.6
2003-04-17 13:02:38 51°26.21 2°50.04 251.8 11.9 251 26.6
2003-04-17 13:03:38 51°26.15 2°49.73 254 12 254 26.1
2003-04-17 13:04:38 51°26.1 2°49.43 254.4 11.9 255 26.5
2003-04-17 13:05:38 51°26.05 2°49.17 256.1 8.1 257 26.7
2003-04-17 13:06:38 51°26.04 2°48.98 264.8 6.8 269 26.7
2003-04-17 13:07:38 51°26.01 2°48.82 249.6 6.4 250 26.7
2003-04-17 13:08:38 51°26.01 2°48.65 281.9 6.8 289 27.2
2003-04-17 13:09:38 51°26.04 2°48.53 270 3.1 285 26.8
2003-04-17 13:10:38 51°26.04 2°48.5 239.6 0.6 246 26.9
2003-04-17 13:11:38 51°26.04 2°48.49 255 0.4 319 26.8
2003-04-17 13:12:38 51°26.05 2°48.49 275.3 0.8 5 26.8
2003-04-17 13:13:38 51°26.07 2°48.49 293.6 1.2 18 26.7
2003-04-17 13:14:38 51°26.09 2°48.51 308 1.3 28 26.6
2003-04-17 13:15:38 51°26.11 2°48.52 300.4 1.2 17 26.7
2003-04-17 13:16:38 51°26.13 2°48.53 291.4 1.2 4 26
2003-04-17 13:17:38 51°26.14 2°48.52 264.4 0.9 308 25.9
2003-04-17 13:18:38 51°26.14 2°48.51 221.2 0.6 166 26
2003-04-17 13:19:38 51°26.13 2°48.53 183.6 1.6 126 26.1
2003-04-17 13:20:38 51°26.11 2°48.56 190 1.4 126 26.9
2003-04-17 13:21:38 51°26.1 2°48.59 195.1 1.1 118 26.7
2003-04-17 13:22:38 51°26.09 2°48.62 200.2 1 115 26.9
2003-04-17 13:23:38 51°26.09 2°48.63 214.1 0.6 113 27
2003-04-17 13:24:38 51°26.09 2°48.65 233.1 0.3 80 27.1
2003-04-17 13:25:38 51°26.09 2°48.65 254.3 0.5 20 26.9
2003-04-17 13:26:38 51°26.1 2°48.66 275.7 0.9 15 26.2
2003-04-17 13:27:38 51°26.12 2°48.66 292.5 1.1 18 27
2003-04-17 13:28:39 51°26.14 2°48.68 312.2 1.4 23 27.1
2003-04-17 13:29:39 51°26.17 2°48.65 277.2 2.9 292 24.5
2003-04-17 13:30:39 51°26.08 2°48.62 185.4 9.3 174 26.8
2003-04-17 13:31:39 51°25.88 2°48.72 171.2 13.1 161 26.9
2003-04-17 13:32:39 51°25.68 2°48.84 171.8 12.9 161 27.3
2003-04-17 13:33:39 51°25.48 2°48.95 171.5 12.9 160 27
2003-04-17 13:34:39 51°25.27 2°49.06 174.4 13 163 26.4
2003-04-17 13:35:39 51°25.06 2°49.16 174.9 13.1 164 22.2
2003-04-17 13:36:39 51°24.85 2°49.26 174 13.1 164 25.2
2003-04-17 13:37:39 51°24.64 2°49.35 173.7 13.2 164 25.2
2003-04-17 13:38:39 51°24.43 2°49.45 174 13.1 164 25.4
2003-04-17 13:39:39 51°24.22 2°49.54 174.4 13 164 25.5
2003-04-17 13:40:39 51°24.01 2°49.62 173 13.1 164 25.4
2003-04-17 13:41:39 51°23.8 2°49.71 173.2 13.3 164 25.4
2003-04-17 13:42:39 51°23.58 2°49.8 173.3 13.3 164 24.8
2003-04-17 13:43:39 51°23.37 2°49.88 174.9 13.1 166 21.9
2003-04-17 13:44:39 51°23.16 2°49.98 172.8 13.1 162 19.2
2003-04-17 13:45:39 51°22.95 2°50.07 175.1 13.1 165 19.7
2003-04-17 13:46:39 51°22.74 2°50.17 173.1 13.4 163 20.6
2003-04-17 13:47:39 51°22.52 2°50.26 175.1 13.1 165 25.8
2003-04-17 13:48:39 51°22.31 2°50.36 173.9 13.3 164 26.1
2003-04-17 13:49:39 51°22.1 2°50.45 174.1 13.5 165 25.7
2003-04-17 13:50:39 51°21.88 2°50.55 173.4 13.3 164 25.6
2003-04-17 13:51:39 51°21.67 2°50.64 174.6 13.3 165 26.6
2003-04-17 13:52:39 51°21.46 2°50.73 173.9 12.9 164 26.6
2003-04-17 13:53:39 51°21.25 2°50.82 175.1 12.8 165 26.3
2003-04-17 13:54:39 51°21.04 2°50.91 173 13.2 163 25.2
2003-04-17 13:55:39 51°20.83 2°51.01 174.1 13.2 164 22.3
2003-04-17 13:56:39 51°20.62 2°51.09 174.8 13.2 166 19.5
2003-04-17 13:57:39 51°20.41 2°51.18 175.3 13.1 166 18.7
2003-04-17 13:58:39 51°20.19 2°51.25 177.6 13.2 169 15.9
2003-04-17 13:59:39 51°19.98 2°51.32 174.5 13.3 167 15.6
2003-04-17 14:00:39 51°19.76 2°51.39 176.5 13.2 169 17.5
2003-04-17 14:01:39 51°19.54 2°51.46 176.4 13.2 168 18.1
2003-04-17 14:02:39 51°19.33 2°51.53 176.3 13.2 168 18.2
2003-04-17 14:03:39 51°19.11 2°51.6 176.5 13.2 169 18.2
2003-04-17 14:04:39 51°18.9 2°51.67 176.2 13.2 168 17
2003-04-17 14:05:39 51°18.68 2°51.74 176.1 13.1 169 16.2
2003-04-17 14:06:39 51°18.47 2°51.81 177.2 13 170 15.1
2003-04-17 14:07:39 51°18.26 2°51.87 176.5 12.9 170 14.2
2003-04-17 14:08:39 51°18.05 2°51.94 176.5 12.9 169 13.5
2003-04-17 14:09:39 51°17.84 2°52.03 165.5 13.1 157 13.1
2003-04-17 14:10:39 51°17.64 2°52.17 165 13.2 157 13.3
2003-04-17 14:11:39 51°17.44 2°52.3 164.9 13.2 158 13.2
2003-04-17 14:12:39 51°17.23 2°52.44 165.2 13.2 158 12.8
2003-04-17 14:13:39 51°17.03 2°52.58 163.5 13.4 156 12.2
2003-04-17 14:14:39 51°16.82 2°52.71 166 13.4 158 12.3
2003-04-17 14:15:39 51°16.62 2°52.86 165.4 13.4 156 14.1
2003-04-17 14:16:39 51°16.42 2°53.01 163.6 13.3 154 14.7
2003-04-17 14:17:39 51°16.22 2°53.16 162.5 13.3 154 14.7
2003-04-17 14:18:39 51°16.02 2°53.33 162.7 13.7 154 14.5
2003-04-17 14:19:39 51°15.81 2°53.49 162.5 13.6 154 14.2
2003-04-17 14:20:39 51°15.61 2°53.67 158.9 13.7 151 13.6
2003-04-17 14:21:39 51°15.41 2°53.84 158.1 13.7 152 12.7
2003-04-17 14:22:39 51°15.21 2°54.02 157.5 13.9 150 11.9
2003-04-17 14:23:39 51°15.02 2°54.2 155.3 13 148 11.3
2003-04-17 14:24:39 51°14.84 2°54.38 152.6 12.7 145 12
2003-04-17 14:25:39 51°14.68 2°54.59 149.5 12.8 141 12.1